createdAt,value
2023-02-27T00:00:37.922Z,2.00
2023-02-27T00:03:30.415Z,2.70
2023-02-27T00:06:22.569Z,2.90
2023-02-27T00:09:14.719Z,2.40
2023-02-27T00:12:08.188Z,2.60
2023-02-27T00:15:00.309Z,2.70
2023-02-27T00:17:52.618Z,2.80
2023-02-27T00:20:44.804Z,3.30
2023-02-27T00:23:37.074Z,2.50
2023-02-27T00:26:29.252Z,2.90
2023-02-27T00:29:21.310Z,2.30
2023-02-27T00:32:13.473Z,2.50
2023-02-27T00:35:06.183Z,2.40
2023-02-27T00:37:58.472Z,2.40
2023-02-27T00:40:50.616Z,1.60
2023-02-27T00:43:42.750Z,2.40
2023-02-27T00:46:34.861Z,1.70
2023-02-27T00:49:17.657Z,1.50
2023-02-27T00:52:10.365Z,1.60
2023-02-27T00:55:02.454Z,1.50
2023-02-27T00:57:54.557Z,1.30
2023-02-27T01:00:46.972Z,1.50
2023-02-27T01:03:39.077Z,1.40
2023-02-27T01:06:31.251Z,1.30
2023-02-27T01:09:24.939Z,1.80
2023-02-27T01:12:17.179Z,0.80
2023-02-27T01:15:11.561Z,1.50
2023-02-27T01:17:49.249Z,1.30
2023-02-27T01:20:41.310Z,1.00
2023-02-27T01:23:33.576Z,1.10
2023-02-27T01:26:25.739Z,0.70
2023-02-27T01:29:17.861Z,0.80
2023-02-27T01:31:53.043Z,0.90
2023-02-27T01:34:45.444Z,1.40
2023-02-27T01:37:37.567Z,1.30
2023-02-27T01:40:30.750Z,1.20
2023-02-27T01:43:24.286Z,1.50
2023-02-27T01:46:16.337Z,1.10
2023-02-27T01:49:01.654Z,1.30
2023-02-27T01:51:56.072Z,1.40
2023-02-27T01:54:48.473Z,1.50
2023-02-27T01:57:42.540Z,1.40
2023-02-27T02:00:19.212Z,1.30
2023-02-27T02:03:19.564Z,1.20
2023-02-27T02:06:12.445Z,1.30
2023-02-27T02:09:06.467Z,1.50
2023-02-27T02:12:00.458Z,1.40
2023-02-27T02:14:53.601Z,1.60
2023-02-27T02:17:54.949Z,1.60
2023-02-27T02:21:24.007Z,1.60
2023-02-27T02:24:59.244Z,1.60
2023-02-27T02:28:04.152Z,2.00
2023-02-27T02:31:21.705Z,1.90
2023-02-27T02:34:42.323Z,1.60
2023-02-27T02:37:55.277Z,1.80
2023-02-27T02:40:53.557Z,2.10
2023-02-27T02:43:56.735Z,2.20
2023-02-27T02:46:57.652Z,1.70
2023-02-27T02:49:55.872Z,2.00
2023-02-27T02:52:52.925Z,2.20
2023-02-27T02:55:48.694Z,2.30
2023-02-27T02:58:47.569Z,3.20
2023-02-27T03:01:23.288Z,1.90
2023-02-27T03:04:19.568Z,1.70
2023-02-27T03:07:18.309Z,2.10
2023-02-27T03:10:16.660Z,2.00
2023-02-27T03:13:13.048Z,1.50
2023-02-27T03:16:11.332Z,1.90
2023-02-27T03:19:09.117Z,2.40
2023-02-27T03:21:53.040Z,1.80
2023-02-27T03:24:50.173Z,1.80
2023-02-27T03:27:47.419Z,2.00
2023-02-27T03:30:36.775Z,2.10
2023-02-27T03:33:32.955Z,1.70
2023-02-27T03:36:33.327Z,1.70
2023-02-27T03:39:38.026Z,1.60
2023-02-27T03:42:37.947Z,2.00
2023-02-27T03:45:34.908Z,1.80
2023-02-27T03:48:27.119Z,1.50
2023-02-27T03:51:05.025Z,2.00
2023-02-27T03:54:03.992Z,1.90
2023-02-27T03:57:01.727Z,2.00
2023-02-27T03:59:54.064Z,1.60
2023-02-27T04:02:38.102Z,1.70
2023-02-27T04:05:18.749Z,3.80
2023-02-27T04:08:41.028Z,2.60
2023-02-27T04:11:47.764Z,1.30
2023-02-27T04:14:57.498Z,1.60
2023-02-27T04:17:57.721Z,1.60
2023-02-27T04:20:55.819Z,1.80
2023-02-27T04:23:57.644Z,1.50
2023-02-27T04:26:55.655Z,1.70
2023-02-27T04:29:54.285Z,1.50
2023-02-27T04:32:53.370Z,1.80
2023-02-27T04:35:52.048Z,1.80
2023-02-27T04:38:50.709Z,1.50
2023-02-27T04:41:48.189Z,2.00
2023-02-27T04:44:26.628Z,2.00
2023-02-27T04:47:20.965Z,2.30
2023-02-27T04:50:16.421Z,2.00
2023-02-27T04:53:14.404Z,1.70
2023-02-27T04:56:09.696Z,2.20
2023-02-27T04:59:06.925Z,2.10
2023-02-27T05:01:48.180Z,2.40
2023-02-27T05:04:44.634Z,3.20
2023-02-27T05:07:42.006Z,3.20
2023-02-27T05:10:38.080Z,2.20
2023-02-27T05:13:33.400Z,2.10
2023-02-27T05:16:33.264Z,2.30
2023-02-27T05:19:25.760Z,2.50
2023-02-27T05:22:29.041Z,12.50
2023-02-27T05:25:29.270Z,11.00
2023-02-27T05:28:08.608Z,8.90
2023-02-27T05:31:08.567Z,6.50
2023-02-27T05:34:06.429Z,4.40
2023-02-27T05:37:04.394Z,9.70
2023-02-27T05:39:56.538Z,5.70
2023-02-27T05:42:42.628Z,3.30
2023-02-27T05:45:40.415Z,2.40
2023-02-27T05:48:37.435Z,4.50
2023-02-27T05:51:34.697Z,3.90
2023-02-27T05:54:33.698Z,4.60
2023-02-27T06:00:22.300Z,2.20
2023-02-27T06:03:01.497Z,6.00
2023-02-27T06:05:55.427Z,10.20
2023-02-27T06:08:47.962Z,8.40
2023-02-27T06:11:40.046Z,8.60
2023-02-27T06:14:32.032Z,4.20
2023-02-27T06:17:24.230Z,5.30
2023-02-27T06:20:16.537Z,4.30
2023-02-27T06:23:09.090Z,10.40
2023-02-27T06:26:01.319Z,8.30
2023-02-27T06:28:53.375Z,7.70
2023-02-27T06:31:28.308Z,14.10
2023-02-27T06:34:16.580Z,17.00
2023-02-27T06:37:08.654Z,10.70
2023-02-27T06:40:00.757Z,11.30
2023-02-27T06:42:52.926Z,17.30
2023-02-27T06:45:45.089Z,17.50
2023-02-27T06:48:37.151Z,9.40
2023-02-27T06:51:29.826Z,4.00
2023-02-27T06:54:08.047Z,6.00
2023-02-27T06:57:00.181Z,15.00
2023-02-27T06:59:52.471Z,12.20
2023-02-27T07:02:44.706Z,7.80
2023-02-27T07:05:36.945Z,4.90
2023-02-27T07:08:29.284Z,5.70
2023-02-27T07:11:21.406Z,6.10
2023-02-27T07:14:15.289Z,6.40
2023-02-27T07:17:07.444Z,5.40
2023-02-27T07:19:59.632Z,10.50
2023-02-27T07:22:51.696Z,9.90
2023-02-27T07:25:26.646Z,8.10
2023-02-27T07:28:19.109Z,5.50
2023-02-27T07:31:11.321Z,5.60
2023-02-27T07:34:03.489Z,3.40
2023-02-27T07:36:55.630Z,3.60
2023-02-27T07:39:47.725Z,3.00
2023-02-27T07:42:39.902Z,4.70
2023-02-27T07:45:32.221Z,5.10
2023-02-27T07:48:24.311Z,4.30
2023-02-27T07:50:59.397Z,4.30
2023-02-27T07:53:51.559Z,4.60
2023-02-27T07:56:43.917Z,4.10
2023-02-27T07:59:21.171Z,4.40
2023-02-27T08:02:14.393Z,6.50
2023-02-27T08:04:49.529Z,3.60
2023-02-27T08:07:41.663Z,2.40
2023-02-27T08:10:23.970Z,2.90
2023-02-27T08:13:04.980Z,3.40
2023-02-27T08:15:37.071Z,2.90
2023-02-27T08:18:30.265Z,3.20
2023-02-27T08:21:22.359Z,10.10
2023-02-27T08:24:14.521Z,6.50
2023-02-27T08:27:06.631Z,3.90
2023-02-27T08:29:58.744Z,2.80
2023-02-27T08:32:34.389Z,3.30
2023-02-27T08:35:26.744Z,3.20
2023-02-27T08:38:01.726Z,3.80
2023-02-27T08:40:54.460Z,3.00
2023-02-27T08:43:46.591Z,3.20
2023-02-27T08:46:38.822Z,3.40
2023-02-27T08:49:30.940Z,4.10
2023-02-27T08:52:11.693Z,3.20
2023-02-27T08:55:03.865Z,4.40
2023-02-27T08:57:56.160Z,4.20
2023-02-27T09:00:48.556Z,4.10
2023-02-27T09:03:29.535Z,3.10
2023-02-27T09:06:21.683Z,3.10
2023-02-27T09:09:03.710Z,4.10
2023-02-27T09:14:39.546Z,2.70
2023-02-27T09:17:31.684Z,3.90
2023-02-27T09:20:24.034Z,4.10
2023-02-27T09:23:16.157Z,3.30
2023-02-27T09:26:09.147Z,3.00
2023-02-27T09:29:01.262Z,3.90
2023-02-27T09:31:53.437Z,2.50
2023-02-27T09:34:45.744Z,3.10
2023-02-27T09:37:26.522Z,3.30
2023-02-27T09:40:25.273Z,2.60
2023-02-27T09:43:21.538Z,5.30
2023-02-27T09:45:57.074Z,2.80
2023-02-27T09:48:51.895Z,3.30
2023-02-27T09:51:43.965Z,2.90
2023-02-27T09:54:18.931Z,1.70
2023-02-27T09:57:01.736Z,1.60
2023-02-27T09:59:57.836Z,1.50
2023-02-27T10:03:02.080Z,2.20
2023-02-27T10:05:43.964Z,2.10
2023-02-27T10:08:45.025Z,1.90
2023-02-27T10:11:45.599Z,2.20
2023-02-27T10:14:43.725Z,1.90
2023-02-27T10:17:40.166Z,2.40
2023-02-27T10:20:35.138Z,1.70
2023-02-27T10:23:34.836Z,2.10
2023-02-27T10:26:30.055Z,2.00
2023-02-27T10:29:19.022Z,1.90
2023-02-27T10:31:58.806Z,2.00
2023-02-27T10:34:42.444Z,1.80
2023-02-27T10:37:37.064Z,1.00
2023-02-27T10:40:30.186Z,1.30
2023-02-27T10:43:23.638Z,1.40
2023-02-27T10:46:01.873Z,1.50
2023-02-27T10:48:37.291Z,1.50
2023-02-27T10:51:31.276Z,2.10
2023-02-27T10:54:27.096Z,3.20
2023-02-27T11:00:25.336Z,1.60
2023-02-27T11:03:28.807Z,2.50
2023-02-27T11:06:26.798Z,2.50
2023-02-27T11:09:20.459Z,4.60
2023-02-27T11:12:28.836Z,3.20
2023-02-27T11:18:29.157Z,1.90
2023-02-27T11:21:24.672Z,2.00
2023-02-27T11:24:22.698Z,2.60
2023-02-27T11:27:26.643Z,2.00
2023-02-27T11:30:28.116Z,2.10
2023-02-27T11:33:22.622Z,2.60
2023-02-27T11:36:05.830Z,1.70
2023-02-27T11:38:58.567Z,1.50
2023-02-27T11:41:51.783Z,2.00
2023-02-27T11:44:53.193Z,2.10
2023-02-27T11:47:49.411Z,2.20
2023-02-27T11:50:56.879Z,2.20
2023-02-27T11:54:09.606Z,1.90
2023-02-27T11:56:48.371Z,1.70
2023-02-27T11:59:48.105Z,1.90
2023-02-27T12:02:48.794Z,1.80
2023-02-27T12:05:45.667Z,1.70
2023-02-27T12:08:43.003Z,1.50
2023-02-27T12:11:38.649Z,1.60
2023-02-27T12:14:40.983Z,1.70
2023-02-27T12:17:40.043Z,2.60
2023-02-27T12:20:40.233Z,2.90
2023-02-27T12:23:23.480Z,1.70
2023-02-27T12:26:22.475Z,1.90
2023-02-27T12:29:24.021Z,1.80
2023-02-27T12:32:24.299Z,1.60
2023-02-27T12:35:20.954Z,1.70
2023-02-27T12:38:15.880Z,2.30
2023-02-27T12:41:12.765Z,2.50
2023-02-27T12:44:33.042Z,1.60
2023-02-27T12:47:30.923Z,1.80
2023-02-27T12:50:24.804Z,2.20
2023-02-27T12:53:24.273Z,2.60
2023-02-27T12:56:20.000Z,1.80
2023-02-27T12:59:31.581Z,1.60
2023-02-27T13:02:52.819Z,1.40
2023-02-27T13:05:54.668Z,11.40
2023-02-27T13:09:04.754Z,2.20
2023-02-27T13:12:04.662Z,1.50
2023-02-27T13:14:52.122Z,1.70
2023-02-27T13:17:49.785Z,1.70
2023-02-27T13:20:51.003Z,2.10
2023-02-27T13:23:58.278Z,1.90
2023-02-27T13:26:55.498Z,1.60
2023-02-27T13:29:56.661Z,1.70
2023-02-27T13:32:43.953Z,1.90
2023-02-27T13:35:46.802Z,1.40
2023-02-27T13:38:46.982Z,1.70
2023-02-27T13:41:41.024Z,1.30
2023-02-27T13:44:50.354Z,1.30
2023-02-27T13:47:48.700Z,2.10
2023-02-27T13:50:54.083Z,1.90
2023-02-27T13:53:46.542Z,2.70
2023-02-27T13:56:25.410Z,3.70
2023-02-27T13:59:23.665Z,5.40
2023-02-27T14:02:46.558Z,9.00
2023-02-27T14:05:39.150Z,2.20
2023-02-27T14:08:24.315Z,2.80
2023-02-27T14:11:21.889Z,2.20
2023-02-27T14:14:33.895Z,4.40
2023-02-27T14:17:13.182Z,6.00
2023-02-27T14:19:59.656Z,9.60
2023-02-27T14:22:41.632Z,4.30
2023-02-27T14:25:32.210Z,3.80
2023-02-27T14:28:31.321Z,8.80
2023-02-27T14:31:25.370Z,7.00
2023-02-27T14:34:19.534Z,11.10
2023-02-27T14:37:17.146Z,8.50
2023-02-27T14:39:57.280Z,11.80
2023-02-27T14:42:58.966Z,5.20
2023-02-27T14:45:51.766Z,6.90
2023-02-27T14:48:44.318Z,7.60
2023-02-27T14:51:38.523Z,4.10
2023-02-27T14:54:30.666Z,4.50
2023-02-27T14:57:05.832Z,5.60
2023-02-27T14:59:48.869Z,7.30
2023-02-27T15:02:33.212Z,3.50
2023-02-27T15:05:24.131Z,10.40
2023-02-27T15:08:21.711Z,7.00
2023-02-27T15:11:18.372Z,10.00
2023-02-27T15:14:25.257Z,7.70
2023-02-27T15:17:22.133Z,8.10
2023-02-27T15:20:29.701Z,12.90
2023-02-27T15:23:27.706Z,35.90
2023-02-27T15:26:19.887Z,23.30
2023-02-27T15:29:22.915Z,26.90
2023-02-27T15:32:30.635Z,7.70
2023-02-27T15:35:26.796Z,9.30
2023-02-27T15:38:30.580Z,5.30
2023-02-27T15:41:22.943Z,3.60
2023-02-27T15:44:16.517Z,6.10
2023-02-27T15:47:11.914Z,5.40
2023-02-27T15:50:11.273Z,4.00
2023-02-27T15:52:50.505Z,6.40
2023-02-27T15:55:45.599Z,2.60
2023-02-27T15:58:26.331Z,2.70
2023-02-27T16:01:22.382Z,2.10
2023-02-27T16:07:06.483Z,2.40
2023-02-27T16:10:03.964Z,4.00
2023-02-27T16:12:56.550Z,2.90
2023-02-27T16:16:01.689Z,3.90
2023-02-27T16:18:50.731Z,4.40
2023-02-27T16:21:23.922Z,4.00
2023-02-27T16:24:32.605Z,3.80
2023-02-27T16:27:29.028Z,3.40
2023-02-27T16:30:21.570Z,3.70
2023-02-27T16:33:03.807Z,2.80
2023-02-27T16:36:18.690Z,3.50
2023-02-27T16:38:52.397Z,2.70
2023-02-27T16:41:28.343Z,3.00
2023-02-27T16:44:21.537Z,3.00
2023-02-27T16:47:13.813Z,2.70
2023-02-27T16:50:11.225Z,3.10
2023-02-27T16:53:03.456Z,4.10
2023-02-27T16:55:46.275Z,4.30
2023-02-27T16:58:38.478Z,4.30
2023-02-27T17:01:32.924Z,3.50
2023-02-27T17:04:27.194Z,4.10
2023-02-27T17:07:20.163Z,3.70
2023-02-27T17:10:15.148Z,3.30
2023-02-27T17:13:07.221Z,3.00
2023-02-27T17:15:59.345Z,3.60
2023-02-27T17:18:51.434Z,5.20
2023-02-27T17:21:32.950Z,4.60
2023-02-27T17:24:25.377Z,4.40
2023-02-27T17:27:06.666Z,5.60
2023-02-27T17:29:58.920Z,8.40
2023-02-27T17:32:51.110Z,6.60
2023-02-27T17:35:43.382Z,4.50
2023-02-27T17:38:36.314Z,6.00
2023-02-27T17:41:13.327Z,5.80
2023-02-27T17:44:05.820Z,7.00
2023-02-27T17:46:57.969Z,6.10
2023-02-27T17:49:50.487Z,8.60
2023-02-27T17:52:42.809Z,5.20
2023-02-27T17:55:25.916Z,4.40
2023-02-27T17:58:18.755Z,6.20
2023-02-27T18:01:20.325Z,5.90
2023-02-27T18:04:13.230Z,4.80
2023-02-27T18:07:05.531Z,5.10
2023-02-27T18:09:57.667Z,5.20
2023-02-27T18:12:49.839Z,5.00
2023-02-27T18:15:27.436Z,4.70
2023-02-27T18:18:19.724Z,3.80
2023-02-27T18:21:16.266Z,5.20
2023-02-27T18:24:09.828Z,4.60
2023-02-27T18:26:48.156Z,5.30
2023-02-27T18:29:40.493Z,4.30
2023-02-27T18:32:32.816Z,6.10
2023-02-27T18:35:25.711Z,8.70
2023-02-27T18:38:17.895Z,8.10
2023-02-27T18:41:01.500Z,5.90
2023-02-27T18:43:53.776Z,5.90
2023-02-27T18:46:46.110Z,6.10
2023-02-27T18:49:38.207Z,5.80
2023-02-27T18:52:30.894Z,4.80
2023-02-27T18:55:14.688Z,5.80
2023-02-27T18:58:07.043Z,6.00
2023-02-27T19:01:00.198Z,5.50
2023-02-27T19:03:53.258Z,2.50
2023-02-27T19:06:45.589Z,2.10
2023-02-27T19:09:37.940Z,4.00
2023-02-27T19:12:30.063Z,4.90
2023-02-27T19:15:14.029Z,3.40
2023-02-27T19:18:06.908Z,3.10
2023-02-27T19:21:02.815Z,3.50
2023-02-27T19:23:55.169Z,2.50
2023-02-27T19:26:47.470Z,2.50
2023-02-27T19:29:40.324Z,2.70
2023-02-27T19:32:17.764Z,2.30
2023-02-27T19:35:14.235Z,3.50
2023-02-27T19:38:06.452Z,3.60
2023-02-27T19:41:04.004Z,5.90
2023-02-27T19:43:57.126Z,5.10
2023-02-27T19:46:51.472Z,3.80
2023-02-27T19:49:43.774Z,4.30
2023-02-27T19:52:37.303Z,2.90
2023-02-27T19:55:29.614Z,2.20
2023-02-27T19:58:21.715Z,3.10
2023-02-27T20:01:03.292Z,2.50
2023-02-27T20:03:55.900Z,2.60
2023-02-27T20:06:50.761Z,2.70
2023-02-27T20:09:42.944Z,2.70
2023-02-27T20:12:35.054Z,2.90
2023-02-27T20:15:27.173Z,2.30
2023-02-27T20:18:19.216Z,2.90
2023-02-27T20:21:13.599Z,2.80
2023-02-27T20:24:06.409Z,3.20
2023-02-27T20:26:54.983Z,2.80
2023-02-27T20:29:48.319Z,3.40
2023-02-27T20:32:40.618Z,3.80
2023-02-27T20:35:33.296Z,4.20
2023-02-27T20:38:25.364Z,3.30
2023-02-27T20:41:18.936Z,3.30
2023-02-27T20:44:12.919Z,3.90
2023-02-27T20:47:07.169Z,3.60
2023-02-27T20:49:40.948Z,3.90
2023-02-27T20:52:21.871Z,3.90
2023-02-27T20:55:14.306Z,3.80
2023-02-27T20:58:06.648Z,3.60
2023-02-27T21:01:04.446Z,3.40
2023-02-27T21:03:46.645Z,3.50
2023-02-27T21:06:38.973Z,4.00
2023-02-27T21:09:31.776Z,3.80
2023-02-27T21:12:24.441Z,3.10
2023-02-27T21:15:16.601Z,3.40
2023-02-27T21:18:09.133Z,3.70
2023-02-27T21:21:05.501Z,4.00
2023-02-27T21:23:58.115Z,3.00
2023-02-27T21:26:50.730Z,3.50
2023-02-27T21:29:42.823Z,8.70
2023-02-27T21:32:32.244Z,6.40
2023-02-27T21:35:24.433Z,2.60
2023-02-27T21:38:17.460Z,3.40
2023-02-27T21:40:58.973Z,3.20
2023-02-27T21:43:51.134Z,2.60
2023-02-27T21:46:43.523Z,2.90
2023-02-27T21:49:35.655Z,3.30
2023-02-27T21:52:27.692Z,2.80
2023-02-27T21:55:19.893Z,3.40
2023-02-27T21:58:04.296Z,3.40
2023-02-27T22:00:56.462Z,4.10
2023-02-27T22:03:53.314Z,4.10
2023-02-27T22:06:45.577Z,3.80
2023-02-27T22:09:37.703Z,5.20
2023-02-27T22:12:29.829Z,4.50
2023-02-27T22:15:12.578Z,3.80
2023-02-27T22:17:55.562Z,4.00
2023-02-27T22:20:47.793Z,4.50
2023-02-27T22:23:40.459Z,5.20
2023-02-27T22:26:24.096Z,4.00
2023-02-27T22:29:17.053Z,4.00
2023-02-27T22:31:51.782Z,3.70
2023-02-27T22:34:32.601Z,4.20
2023-02-27T22:37:24.627Z,4.10
2023-02-27T22:40:18.758Z,5.20
2023-02-27T22:42:53.615Z,4.40
2023-02-27T22:45:49.228Z,4.30
2023-02-27T22:48:38.550Z,4.30
2023-02-27T22:51:31.662Z,3.50
2023-02-27T22:54:25.029Z,4.00
2023-02-27T22:57:17.228Z,4.40
2023-02-27T22:59:52.991Z,4.20
2023-02-27T23:02:45.059Z,5.30
2023-02-27T23:05:37.979Z,4.30
2023-02-27T23:08:30.116Z,4.30
2023-02-27T23:11:22.875Z,4.20
2023-02-27T23:14:12.778Z,4.50
2023-02-27T23:17:04.965Z,6.60
2023-02-27T23:19:57.137Z,4.70
2023-02-27T23:22:49.430Z,4.40
2023-02-27T23:25:41.627Z,3.80
2023-02-27T23:28:34.918Z,3.80
2023-02-27T23:31:27.522Z,4.50
2023-02-27T23:34:19.952Z,4.70
2023-02-27T23:37:12.472Z,4.10
2023-02-27T23:40:06.607Z,4.00
2023-02-27T23:43:03.474Z,3.40
2023-02-27T23:45:55.589Z,3.10
2023-02-27T23:48:48.643Z,3.90
2023-02-27T23:51:41.077Z,3.70
2023-02-27T23:54:23.332Z,4.30
2023-02-27T23:57:15.442Z,5.10
